Chehalis, WA (98532)

7:51 PM PDT on September 02, 2015 (GMT -0700)
Crego Ridge | | Change Station
CLOSE
Current Station
Personal Weather Station
Location: Chehalis, WA
Elevation: 873 ft
Nearby Weather Stations

Elev 873 ft 46.59 °N, 123.07 °W | Updated 12 seconds ago

Scattered Clouds
Scattered Clouds
52.5 °F
Feels Like 52.5 °F
N
1.1
Wind Variable Wind from SSW

Today
High -- | Low -- °F
--% Chance of Precip.
Yesterday
High -- | Low -- °F
Precip. -- in
6:33 AM 7:49 PM
Waning Gibbous, 75% visible
Pressure 29.95 in
Visibility 10.0 miles
Clouds Scattered Clouds 12000 ft
Dew Point 51 °F
Humidity 95%
Rainfall 0.22 in
Snow Depth Not available.
UV 0 out of 12
Pollen .50 out of 12
Air Quality Not available.
Flu Activity Not available.
METAR KCLS 030235Z AUTO 00000KT 10SM SCT120 15/12 A2995 RMK A01
Pressure 29.95 in
Visibility 10.0 miles
Clouds Scattered Clouds 12000 ft
Dew Point 51 °F
Humidity 95%
Rainfall 0.22 in
Snow Depth Not available.
UV 0 out of 12
Pollen .50 out of 12
Air Quality Not available.
Flu Activity Not available.
METAR KCLS 030235Z AUTO 00000KT 10SM SCT120 15/12 A2995 RMK A01

10-Day Weather Forecast

×

Almanac

Astronomy

Sep. 02, 2015 Rise Set
Actual Time
Civil Twilight
Nautical Twilight
Astronomical Twilight
Moon
Length of Visible Light
Length of Day
Tomorrow will be .
, % of the Moon is Illuminated

Today's Extremes

State Highs State Lows

Community

WunderPhotos

Upload Photos

1,851,879 photos uploaded!

WunderBlogs® & News

Nearby

Air Quality

  Air Quality AQ Index Pollutant
Not available.

Snow Depth

Station Depth Elevation

Earthquake Activity

City Distance Mag. Time & Date
Minimum magnitude displayed is 2.5.

Coastal Water Temperatures

Place Temperature

Stations

Nearby Weather Stations

Station Location Temp. Windchill Dew Point Humidity Wind Precip. Elev Updated Type